createdAt,value
2023-03-26T00:01:24.472Z,49.88
2023-03-26T00:04:10.616Z,49.58
2023-03-26T00:06:57.369Z,49.85
2023-03-26T00:09:42.872Z,49.86
2023-03-26T00:12:28.168Z,49.72
2023-03-26T00:15:13.467Z,49.91
2023-03-26T00:18:00.718Z,49.77
2023-03-26T00:20:46.390Z,49.86
2023-03-26T00:23:33.906Z,49.85
2023-03-26T00:26:19.269Z,49.92
2023-03-26T00:29:06.689Z,49.93
2023-03-26T00:31:51.980Z,49.72
2023-03-26T00:34:37.244Z,49.88
2023-03-26T00:37:26.823Z,49.79
2023-03-26T00:40:12.443Z,49.80
2023-03-26T00:42:57.984Z,49.84
2023-03-26T00:45:43.212Z,49.80
2023-03-26T00:48:44.346Z,49.86
2023-03-26T00:51:30.938Z,49.84
2023-03-26T00:54:16.565Z,49.75
2023-03-26T00:57:01.924Z,49.81
2023-03-26T00:59:50.090Z,49.66
2023-03-26T01:02:35.846Z,49.82
2023-03-26T01:05:36.259Z,49.76
2023-03-26T01:08:32.530Z,49.78
2023-03-26T01:11:22.212Z,49.89
2023-03-26T01:14:20.398Z,49.86
2023-03-26T01:17:08.133Z,49.67
2023-03-26T01:20:11.907Z,49.83
2023-03-26T01:23:05.321Z,49.86
2023-03-26T01:26:09.901Z,49.86
2023-03-26T01:28:59.818Z,49.83
2023-03-26T01:32:14.010Z,49.85
2023-03-26T01:35:19.034Z,49.90
2023-03-26T01:38:28.890Z,49.80
2023-03-26T01:41:20.977Z,49.63
2023-03-26T01:44:31.184Z,49.84
2023-03-26T01:47:18.473Z,49.75
2023-03-26T01:50:04.726Z,49.88
2023-03-26T01:52:49.935Z,49.80
2023-03-26T01:56:06.298Z,49.85
2023-03-26T01:59:08.240Z,49.75
2023-03-26T02:02:01.299Z,49.83
2023-03-26T02:04:57.759Z,49.85
2023-03-26T02:07:51.153Z,49.68
2023-03-26T02:10:45.910Z,49.81
2023-03-26T02:13:32.548Z,49.67
2023-03-26T02:16:19.734Z,49.78
2023-03-26T02:19:15.369Z,49.86
2023-03-26T02:22:01.007Z,49.87
2023-03-26T02:24:49.124Z,49.70
2023-03-26T02:27:34.461Z,49.66
2023-03-26T02:30:29.766Z,49.82
2023-03-26T02:33:17.410Z,49.73
2023-03-26T02:36:04.411Z,49.60
2023-03-26T02:38:50.776Z,49.73
2023-03-26T02:41:40.357Z,49.80
2023-03-26T02:44:30.517Z,49.86
2023-03-26T02:47:19.152Z,49.79
2023-03-26T02:50:11.965Z,50.11
2023-03-26T02:53:11.998Z,49.82
2023-03-26T02:56:00.759Z,49.84
2023-03-26T02:58:52.586Z,49.69
2023-03-26T03:01:42.777Z,49.84
2023-03-26T03:04:29.831Z,49.79
2023-03-26T03:07:17.980Z,49.62
2023-03-26T03:10:08.358Z,49.77
2023-03-26T03:13:20.273Z,49.64
2023-03-26T03:16:06.988Z,49.81
2023-03-26T03:18:58.041Z,49.66
2023-03-26T03:21:54.574Z,49.80
2023-03-26T03:24:40.093Z,49.73
2023-03-26T03:27:26.193Z,49.56
2023-03-26T03:30:26.040Z,49.81
2023-03-26T03:33:36.850Z,49.78
2023-03-26T03:36:23.357Z,49.79
2023-03-26T03:39:18.003Z,50.19
2023-03-26T03:42:03.479Z,49.63
2023-03-26T03:44:49.276Z,49.83
2023-03-26T03:47:57.203Z,49.58
2023-03-26T03:50:50.337Z,49.75
2023-03-26T03:53:42.333Z,49.76
2023-03-26T03:56:29.218Z,49.78
2023-03-26T03:59:34.648Z,49.95
2023-03-26T04:02:30.296Z,49.67
2023-03-26T04:05:19.980Z,49.73
2023-03-26T04:08:08.422Z,49.72
2023-03-26T04:11:06.424Z,49.87
2023-03-26T04:14:11.235Z,49.86
2023-03-26T04:17:14.058Z,49.85
2023-03-26T04:20:10.609Z,49.93
2023-03-26T04:22:56.281Z,49.99
2023-03-26T04:25:50.113Z,50.01
2023-03-26T04:28:47.641Z,50.06
2023-03-26T04:31:38.338Z,50.11
2023-03-26T04:34:25.281Z,50.15
2023-03-26T04:37:40.085Z,50.10
2023-03-26T04:40:30.640Z,50.19
2023-03-26T04:43:36.202Z,50.19
2023-03-26T04:46:45.285Z,50.14
2023-03-26T04:49:57.236Z,50.16
2023-03-26T04:52:45.177Z,50.18
2023-03-26T04:56:07.057Z,50.25
2023-03-26T04:59:26.087Z,50.42
2023-03-26T05:02:14.209Z,50.66
2023-03-26T05:05:18.196Z,50.84
2023-03-26T05:08:05.723Z,50.98
2023-03-26T05:10:51.065Z,50.88
2023-03-26T05:13:47.125Z,51.18
2023-03-26T05:16:36.201Z,51.12
2023-03-26T05:19:26.068Z,51.07
2023-03-26T05:22:11.736Z,50.91
2023-03-26T05:25:04.100Z,50.77
2023-03-26T05:27:49.593Z,51.21
2023-03-26T05:30:36.214Z,51.18
2023-03-26T05:33:23.524Z,51.10
2023-03-26T05:36:19.227Z,51.27
2023-03-26T05:39:09.882Z,51.10
2023-03-26T05:42:27.894Z,51.09
2023-03-26T05:45:25.951Z,51.24
2023-03-26T05:48:12.313Z,50.97
2023-03-26T05:50:59.138Z,51.30
2023-03-26T05:53:47.306Z,51.33
2023-03-26T05:56:53.234Z,51.08
2023-03-26T05:59:58.078Z,51.20
2023-03-26T06:03:02.756Z,50.99
2023-03-26T06:06:16.894Z,51.12
2023-03-26T06:09:08.479Z,50.81
2023-03-26T06:11:55.075Z,50.85
2023-03-26T06:14:42.903Z,50.91
2023-03-26T06:17:36.305Z,50.69
2023-03-26T06:20:32.891Z,50.83
2023-03-26T06:23:23.957Z,50.87
2023-03-26T06:26:34.016Z,50.72
2023-03-26T06:29:36.085Z,50.98
2023-03-26T06:32:44.790Z,50.81
2023-03-26T06:35:36.664Z,49.78
2023-03-26T06:38:22.407Z,50.26
2023-03-26T06:41:08.250Z,50.38
2023-03-26T06:49:08.139Z,51.16
2023-03-26T06:52:24.312Z,49.38
2023-03-26T06:55:45.135Z,48.59
2023-03-26T06:58:45.827Z,48.28
2023-03-26T07:01:49.895Z,48.74
2023-03-26T07:04:54.232Z,48.75
2023-03-26T07:07:58.443Z,49.00
2023-03-26T07:11:02.576Z,49.02
2023-03-26T07:14:08.491Z,48.89
2023-03-26T07:17:17.098Z,47.49
2023-03-26T07:20:13.135Z,47.68
2023-03-26T07:23:01.313Z,48.87
2023-03-26T07:26:13.659Z,49.79
2023-03-26T07:29:35.188Z,50.19
2023-03-26T07:33:03.809Z,50.14
2023-03-26T07:36:43.234Z,50.48
2023-03-26T07:40:24.514Z,50.80
2023-03-26T07:43:43.114Z,50.60
2023-03-26T07:46:53.279Z,50.65
2023-03-26T07:49:57.927Z,50.54
2023-03-26T07:53:02.563Z,50.79
2023-03-26T07:56:20.433Z,50.56
2023-03-26T08:00:01.297Z,50.41
2023-03-26T08:03:23.629Z,50.83
2023-03-26T08:06:36.541Z,51.33
2023-03-26T08:09:38.545Z,50.18
2023-03-26T08:13:18.209Z,50.21
2023-03-26T08:16:33.192Z,50.37
2023-03-26T08:19:44.903Z,49.04
2023-03-26T08:22:36.701Z,49.02
2023-03-26T08:25:33.445Z,49.48
2023-03-26T08:28:46.117Z,49.51
2023-03-26T08:31:35.141Z,49.32
2023-03-26T08:34:20.590Z,49.37
2023-03-26T08:37:05.881Z,49.49
2023-03-26T08:39:51.578Z,49.50
2023-03-26T08:43:08.500Z,49.45
2023-03-26T08:46:23.686Z,49.54
2023-03-26T08:49:29.691Z,49.64
2023-03-26T08:52:18.153Z,49.65
2023-03-26T08:55:17.769Z,49.67
2023-03-26T08:58:27.964Z,49.64
2023-03-26T09:01:32.092Z,49.95
2023-03-26T09:04:20.930Z,49.94
2023-03-26T09:07:12.368Z,49.03
2023-03-26T09:10:04.635Z,48.85
2023-03-26T09:13:22.590Z,49.34
2023-03-26T09:16:49.325Z,49.31
2023-03-26T09:20:12.198Z,49.60
2023-03-26T09:23:03.697Z,49.56
2023-03-26T09:26:03.606Z,49.62
2023-03-26T09:29:10.849Z,49.91
2023-03-26T09:32:18.320Z,50.16
2023-03-26T09:35:25.973Z,49.87
2023-03-26T09:38:29.709Z,50.14
2023-03-26T09:41:21.255Z,49.64
2023-03-26T09:44:32.088Z,50.03
2023-03-26T09:47:44.029Z,50.14
2023-03-26T09:50:54.242Z,50.45
2023-03-26T09:53:52.052Z,50.55
2023-03-26T09:56:43.621Z,50.85
2023-03-26T09:59:57.298Z,50.09
2023-03-26T10:03:07.617Z,50.37
2023-03-26T10:05:58.154Z,50.35
2023-03-26T10:09:08.472Z,50.43
2023-03-26T10:12:14.423Z,50.66
2023-03-26T10:15:08.497Z,50.88
2023-03-26T10:18:33.092Z,50.91
2023-03-26T10:21:26.714Z,51.09
2023-03-26T10:24:37.897Z,51.27
2023-03-26T10:27:41.625Z,51.91
2023-03-26T10:30:53.240Z,52.58
2023-03-26T10:33:48.113Z,52.44
2023-03-26T10:36:33.525Z,52.43
2023-03-26T10:39:41.688Z,52.44
2023-03-26T10:42:55.579Z,52.60
2023-03-26T10:45:59.761Z,52.73
2023-03-26T10:48:47.858Z,52.01
2023-03-26T10:51:48.691Z,51.35
2023-03-26T10:54:56.672Z,51.62
2023-03-26T10:57:52.899Z,52.14
2023-03-26T11:00:47.543Z,52.24
2023-03-26T11:03:52.631Z,52.58
2023-03-26T11:07:04.836Z,52.85
2023-03-26T11:09:56.828Z,52.87
2023-03-26T11:13:05.047Z,52.88
2023-03-26T11:16:05.049Z,53.06
2023-03-26T11:19:05.753Z,53.46
2023-03-26T11:22:09.135Z,53.46
2023-03-26T11:25:23.446Z,53.40
2023-03-26T11:28:31.160Z,53.77
2023-03-26T11:31:24.683Z,53.87
2023-03-26T11:34:16.597Z,54.20
2023-03-26T11:37:08.623Z,51.53
2023-03-26T11:39:58.416Z,49.31
2023-03-26T11:42:44.909Z,46.51
2023-03-26T11:45:39.429Z,43.92
2023-03-26T11:48:37.030Z,44.95
2023-03-26T11:51:33.588Z,45.93
2023-03-26T11:54:21.167Z,46.36
2023-03-26T11:57:13.757Z,46.00
2023-03-26T12:00:17.972Z,46.16
2023-03-26T12:03:03.319Z,45.90
2023-03-26T12:05:59.348Z,46.00
2023-03-26T12:08:44.838Z,45.80
2023-03-26T12:11:35.624Z,43.87
2023-03-26T12:14:24.853Z,42.16
2023-03-26T12:17:31.402Z,40.16
2023-03-26T12:20:29.823Z,40.06
2023-03-26T12:23:38.798Z,39.84
2023-03-26T12:26:46.364Z,40.72
2023-03-26T12:29:34.708Z,41.07
2023-03-26T12:32:19.881Z,40.99
2023-03-26T12:35:08.225Z,40.23
2023-03-26T12:37:55.812Z,39.34
2023-03-26T12:40:43.063Z,40.31
2023-03-26T12:44:54.325Z,41.44
2023-03-26T12:47:57.075Z,41.77
2023-03-26T12:50:34.078Z,42.72
2023-03-26T12:53:40.639Z,43.01
2023-03-26T12:56:37.021Z,43.38
2023-03-26T12:59:41.655Z,43.43
2023-03-26T13:02:48.628Z,43.48
2023-03-26T13:06:06.648Z,42.86
2023-03-26T13:09:29.842Z,43.80
2023-03-26T13:12:34.198Z,44.12
2023-03-26T13:15:33.162Z,44.40
2023-03-26T13:18:52.061Z,44.97
2023-03-26T13:21:53.959Z,45.36
2023-03-26T13:25:01.518Z,45.12
2023-03-26T13:28:12.090Z,45.33
2023-03-26T13:31:18.036Z,45.66
2023-03-26T13:34:46.904Z,45.45
2023-03-26T13:37:55.537Z,45.68
2023-03-26T13:41:02.649Z,45.55
2023-03-26T13:44:03.200Z,45.35
2023-03-26T13:47:13.351Z,45.16
2023-03-26T13:50:06.284Z,45.18
2023-03-26T13:52:57.070Z,45.25
2023-03-26T13:55:50.392Z,45.16
2023-03-26T13:58:57.669Z,45.23
2023-03-26T14:01:55.415Z,45.70
2023-03-26T14:04:47.956Z,46.03
2023-03-26T14:07:41.395Z,46.25
2023-03-26T14:10:28.930Z,46.32
2023-03-26T14:13:38.857Z,46.60
2023-03-26T14:16:34.583Z,46.56
2023-03-26T14:19:33.692Z,47.22
2023-03-26T14:22:21.956Z,47.15
2023-03-26T14:25:19.775Z,47.51
2023-03-26T14:28:38.332Z,47.99
2023-03-26T14:31:56.433Z,47.97
2023-03-26T14:35:06.227Z,48.19
2023-03-26T14:38:21.021Z,48.26
2023-03-26T14:41:19.152Z,48.08
2023-03-26T14:44:51.341Z,48.26
2023-03-26T14:48:15.530Z,48.54
2023-03-26T14:51:13.165Z,48.35
2023-03-26T14:54:08.860Z,48.36
2023-03-26T14:57:25.513Z,48.72
2023-03-26T15:00:49.636Z,48.58
2023-03-26T15:03:53.634Z,48.01
2023-03-26T15:06:55.156Z,47.87
2023-03-26T15:10:34.682Z,48.27
2023-03-26T15:13:40.919Z,48.28
2023-03-26T15:16:44.497Z,48.10
2023-03-26T15:20:04.316Z,48.23
2023-03-26T15:23:18.720Z,47.87
2023-03-26T15:26:11.276Z,48.14
2023-03-26T15:29:21.973Z,48.41
2023-03-26T15:32:42.748Z,48.74
2023-03-26T15:36:03.538Z,49.22
2023-03-26T15:39:25.113Z,49.75
2023-03-26T15:42:42.649Z,50.06
2023-03-26T15:45:46.062Z,50.57
2023-03-26T15:48:39.785Z,50.50
2023-03-26T15:51:26.128Z,51.06
2023-03-26T15:54:23.153Z,50.85
2023-03-26T15:57:32.633Z,50.49
2023-03-26T16:00:19.269Z,50.94
2023-03-26T16:03:10.924Z,50.76
2023-03-26T16:06:31.031Z,50.87
2023-03-26T16:09:44.946Z,50.91
2023-03-26T16:12:35.829Z,50.39
2023-03-26T16:15:33.298Z,50.72
2023-03-26T16:18:27.552Z,50.75
2023-03-26T16:21:30.530Z,50.80
2023-03-26T16:24:23.406Z,50.18
2023-03-26T16:27:15.302Z,49.22
2023-03-26T16:30:01.202Z,49.44
2023-03-26T16:32:56.403Z,49.05
2023-03-26T16:36:05.686Z,49.59
2023-03-26T16:39:11.719Z,50.14
2023-03-26T16:42:06.181Z,50.21
2023-03-26T16:44:52.176Z,49.85
2023-03-26T16:47:44.806Z,49.47
2023-03-26T16:50:50.161Z,49.41
2023-03-26T16:53:41.721Z,49.35
2023-03-26T16:56:45.250Z,49.47
2023-03-26T17:00:05.697Z,50.19
2023-03-26T17:03:31.807Z,49.79
2023-03-26T17:06:25.267Z,50.04
2023-03-26T17:09:51.581Z,50.60
2023-03-26T17:12:44.563Z,50.44
2023-03-26T17:15:52.466Z,50.12
2023-03-26T17:18:37.678Z,50.07
2023-03-26T17:21:45.747Z,50.28
2023-03-26T17:24:57.203Z,49.62
2023-03-26T17:28:24.035Z,49.93
2023-03-26T17:31:37.153Z,49.38
2023-03-26T17:34:38.095Z,49.02
2023-03-26T17:37:23.700Z,48.48
2023-03-26T17:40:44.770Z,48.32
2023-03-26T17:43:47.127Z,48.13
2023-03-26T17:49:32.025Z,48.07
2023-03-26T17:52:41.661Z,48.46
2023-03-26T17:55:38.810Z,47.80
2023-03-26T17:58:42.850Z,48.47
2023-03-26T18:01:38.466Z,47.07
2023-03-26T18:04:34.967Z,46.69
2023-03-26T18:07:32.218Z,46.96
2023-03-26T18:10:30.747Z,46.57
2023-03-26T18:13:44.901Z,46.75
2023-03-26T18:16:39.287Z,47.21
2023-03-26T18:19:25.993Z,47.05
2023-03-26T18:22:19.536Z,46.42
2023-03-26T18:25:05.330Z,46.52
2023-03-26T18:27:51.453Z,46.26
2023-03-26T18:30:47.881Z,46.04
2023-03-26T18:33:43.153Z,45.76
2023-03-26T18:36:31.074Z,46.16
2023-03-26T18:39:18.737Z,46.24
2023-03-26T18:42:22.867Z,45.69
2023-03-26T18:45:23.600Z,45.55
2023-03-26T18:48:19.168Z,45.63
2023-03-26T18:51:07.176Z,45.65
2023-03-26T18:53:57.248Z,45.32
2023-03-26T18:56:47.099Z,45.33
2023-03-26T18:59:38.057Z,45.52
2023-03-26T19:02:27.070Z,45.54
2023-03-26T19:05:21.953Z,45.55
2023-03-26T19:08:08.247Z,45.66
2023-03-26T19:10:55.171Z,45.61
2023-03-26T19:13:46.371Z,45.58
2023-03-26T19:16:35.620Z,45.52
2023-03-26T19:19:23.570Z,45.59
2023-03-26T19:22:11.860Z,45.47
2023-03-26T19:25:00.925Z,45.64
2023-03-26T19:27:46.763Z,45.73
2023-03-26T19:30:41.123Z,46.14
2023-03-26T19:33:34.696Z,45.42
2023-03-26T19:36:23.622Z,45.50
2023-03-26T19:39:12.797Z,45.36
2023-03-26T19:41:58.383Z,46.62
2023-03-26T19:44:44.729Z,45.60
2023-03-26T19:47:50.405Z,45.25
2023-03-26T19:50:53.364Z,45.26
2023-03-26T19:53:43.840Z,45.27
2023-03-26T19:56:30.100Z,45.48
2023-03-26T19:59:15.711Z,46.23
2023-03-26T20:02:01.696Z,45.49
2023-03-26T20:04:47.818Z,45.32
2023-03-26T20:07:35.399Z,45.57
2023-03-26T20:10:21.031Z,45.55
2023-03-26T20:13:17.287Z,46.11
2023-03-26T20:16:27.307Z,45.87
2023-03-26T20:19:14.180Z,46.52
2023-03-26T20:22:00.639Z,47.38
2023-03-26T20:24:46.825Z,47.78
2023-03-26T20:27:32.359Z,47.67
2023-03-26T20:30:27.526Z,47.83
2023-03-26T20:33:27.778Z,48.04
2023-03-26T20:36:13.715Z,47.87
2023-03-26T20:38:59.024Z,47.97
2023-03-26T20:41:47.144Z,47.98
2023-03-26T20:44:32.737Z,48.01
2023-03-26T20:47:18.196Z,48.30
2023-03-26T20:50:05.126Z,48.04
2023-03-26T20:52:50.564Z,47.97
2023-03-26T20:55:35.992Z,48.26
2023-03-26T20:58:31.542Z,48.37
2023-03-26T21:01:17.804Z,48.17
2023-03-26T21:04:04.431Z,47.95
2023-03-26T21:06:50.800Z,48.15
2023-03-26T21:09:37.543Z,48.04
2023-03-26T21:12:33.524Z,48.32
2023-03-26T21:15:23.527Z,48.27
2023-03-26T21:18:09.850Z,48.25
2023-03-26T21:21:30.407Z,48.35
2023-03-26T21:24:45.947Z,48.56
2023-03-26T21:27:47.351Z,48.54
2023-03-26T21:30:34.407Z,48.47
2023-03-26T21:33:20.352Z,48.58
2023-03-26T21:36:07.465Z,48.65
2023-03-26T21:38:54.659Z,48.80
2023-03-26T21:41:45.660Z,48.81
2023-03-26T21:44:31.918Z,48.64
2023-03-26T21:47:18.177Z,48.54
2023-03-26T21:50:06.960Z,48.53
2023-03-26T21:52:53.529Z,48.52
2023-03-26T21:56:16.134Z,48.66
2023-03-26T21:59:10.768Z,48.75
2023-03-26T22:01:58.934Z,48.53
2023-03-26T22:05:11.487Z,48.80
2023-03-26T22:08:03.089Z,48.51
2023-03-26T22:10:48.891Z,48.68
2023-03-26T22:13:35.770Z,48.70
2023-03-26T22:16:25.480Z,48.74
2023-03-26T22:19:12.846Z,48.70
2023-03-26T22:22:00.190Z,48.63
2023-03-26T22:24:45.770Z,48.74
2023-03-26T22:27:31.247Z,48.76
2023-03-26T22:30:17.874Z,48.82
2023-03-26T22:33:03.544Z,48.86
2023-03-26T22:35:49.713Z,48.96
2023-03-26T22:38:36.245Z,48.82
2023-03-26T22:41:23.026Z,48.96
2023-03-26T22:44:19.058Z,48.98
2023-03-26T22:47:05.984Z,48.90
2023-03-26T22:49:51.585Z,49.13
2023-03-26T22:52:38.966Z,49.28
2023-03-26T22:55:28.425Z,49.47
2023-03-26T22:58:14.811Z,49.29
2023-03-26T23:01:10.610Z,49.43
2023-03-26T23:03:56.354Z,49.43
2023-03-26T23:06:42.263Z,49.44
2023-03-26T23:09:27.646Z,49.52
2023-03-26T23:12:12.867Z,49.57
2023-03-26T23:14:58.337Z,49.38
2023-03-26T23:17:43.784Z,49.54
2023-03-26T23:20:29.991Z,49.55
2023-03-26T23:23:15.877Z,49.56
2023-03-26T23:26:03.494Z,49.43
2023-03-26T23:28:51.098Z,49.62
2023-03-26T23:31:37.046Z,49.48
2023-03-26T23:34:23.230Z,49.61
2023-03-26T23:37:11.151Z,49.61
2023-03-26T23:39:56.649Z,49.59
2023-03-26T23:42:42.464Z,49.66
2023-03-26T23:45:27.693Z,49.58
2023-03-26T23:48:17.430Z,49.73
2023-03-26T23:51:04.003Z,49.66
2023-03-26T23:53:50.140Z,49.60
2023-03-26T23:56:36.075Z,49.67
2023-03-26T23:59:21.236Z,49.55
